Flight Track Log - Related Links

Times and Time Zones

All times are in EDT time to prevent confusion due to time zone crossing. See the N27XP flight status page for this flight to view local times or setup timezone preferences in your user account.


Time Position Orientation Groundspeed Altitude Reporting Facility
EDT Latitude Longitude Course Direction KTS MPH feet Rate Location/Type
Tue 08:55:55 AM 35.3008 -79.9875 280° West 287 330 6,000  Level Atlanta Center
Tue 08:56:00 AM 35.3074 -79.8812 280° West  Level FlightAware Approximate
Tue 08:56:25 AM 35.3086 -80.0353 281° West 284 327 6,000  Level Atlanta Center
Tue 08:57:00 AM 35.3167 -79.9649 270° West  Level FlightAware Approximate
Tue 08:57:26 AM 35.3242 -80.1289 282° West 287 330 6,000  Level Atlanta Center
Tue 08:58:00 AM 35.3190 -80.0492 280° West  Level FlightAware Approximate
Tue 08:58:45 AM 35.3428 -80.2553 280° West 283 326 6,000  Level Atlanta Center
Tue 08:59:00 AM 35.3312 -80.1325 280° West  Level FlightAware Approximate
Tue 08:59:28 AM 35.3533 -80.3286 280° West 284 327 5,900  Level Atlanta Center
Tue 09:00:00 AM 35.3433 -80.2158 280° West  Level FlightAware Approximate
Tue 09:00:34 AM 35.3708 -80.4272 282° West 283 326 4,600  Level Atlanta Center
Tue 09:01:00 AM 35.3553 -80.2992 280° West  Level FlightAware Approximate
Tue 09:01:35 AM 35.3861 -80.5183 282° West 269 310 4,000  Level Atlanta Center
Tue 09:02:36 AM 35.4014 -80.6144 281° West 264 304 4,000  Level Atlanta Center
Tue 09:03:31 AM 35.4119 -80.6956 279° West 264 304 4,000  Level Atlanta Center
Tue 09:04:44 AM 35.4250 -80.7969 279° West 264 304 4,000  Level Atlanta Center
Tue 09:05:51 AM 35.4422 -80.8981 282° West 264 304 4,000  Level Atlanta Center
Tue 09:06:46 AM 35.4525 -80.9717 280° West 225 259 4,000 -344 Level Atlanta Center
Tue 09:07:53 AM 35.4667 -81.0400 284° West 192 221 3,300 -627 Descending Atlanta Center
Tue 09:09:00 AM 35.4667 -81.1360 270° West  Level FlightAware Approximate
Tue 09:16:00 AM 35.4667 -81.1500 270° West  Level FlightAware Approximate
Tue 09:17:00 AM 35.4833 -81.1612 270° West  Level Estimated
Tue 09:18:00 AM 35.4833 -81.1612 270° West  Level Estimated

Login

Don't have an account? Register now (free) for customized features, flight alerts, and more!